createdAt,value
2022-09-29T00:00:36.702Z,36.05
2022-09-29T00:03:03.870Z,31.92
2022-09-29T00:05:30.586Z,30.60
2022-09-29T00:07:57.188Z,28.88
2022-09-29T00:10:23.834Z,31.02
2022-09-29T00:12:50.287Z,35.40
2022-09-29T00:15:16.873Z,36.47
2022-09-29T00:17:58.024Z,36.75
2022-09-29T00:20:29.457Z,33.63
2022-09-29T00:22:55.871Z,35.17
2022-09-29T00:25:22.344Z,33.65
2022-09-29T00:27:48.699Z,29.02
2022-09-29T00:30:15.006Z,31.20
2022-09-29T00:32:41.479Z,30.55
2022-09-29T00:35:10.224Z,29.77
2022-09-29T00:37:37.135Z,28.67
2022-09-29T00:40:04.833Z,28.95
2022-09-29T00:42:32.541Z,27.80
2022-09-29T00:45:23.021Z,31.60
2022-09-29T00:48:13.299Z,29.95
2022-09-29T00:50:46.598Z,30.33
2022-09-29T00:53:20.591Z,29.83
2022-09-29T00:55:53.757Z,29.58
2022-09-29T00:58:37.021Z,30.33
2022-09-29T01:01:05.273Z,32.13
2022-09-29T01:03:35.793Z,31.70
2022-09-29T01:06:13.805Z,32.78
2022-09-29T01:08:45.898Z,33.72
2022-09-29T01:11:13.353Z,31.60
2022-09-29T01:13:41.605Z,30.55
2022-09-29T01:16:09.402Z,33.42
2022-09-29T01:18:36.236Z,35.80
2022-09-29T01:21:55.057Z,35.15
2022-09-29T01:25:01.986Z,36.85
2022-09-29T01:27:45.558Z,35.42
2022-09-29T01:30:37.809Z,34.53
2022-09-29T01:33:22.524Z,34.50
2022-09-29T01:36:03.287Z,36.95
2022-09-29T01:38:46.734Z,38.65
2022-09-29T01:41:49.659Z,38.97
2022-09-29T01:44:36.024Z,37.63
2022-09-29T01:47:11.075Z,35.35
2022-09-29T01:49:42.256Z,37.70
2022-09-29T01:52:19.159Z,36.40
2022-09-29T01:55:08.245Z,38.42
2022-09-29T01:57:46.309Z,36.33
2022-09-29T02:00:16.103Z,40.05
2022-09-29T02:02:50.705Z,37.08
2022-09-29T02:05:32.362Z,36.30
2022-09-29T02:08:07.354Z,35.67
2022-09-29T02:10:40.398Z,36.90
2022-09-29T02:13:10.451Z,33.85
2022-09-29T02:15:42.958Z,31.55
2022-09-29T02:18:15.812Z,33.30
2022-09-29T02:20:42.305Z,34.15
2022-09-29T02:23:08.698Z,32.88
2022-09-29T02:25:38.537Z,33.58
2022-09-29T02:28:06.679Z,34.20
2022-09-29T02:30:34.754Z,36.53
2022-09-29T02:33:01.270Z,36.28
2022-09-29T02:35:57.662Z,35.58
2022-09-29T02:38:47.031Z,35.13
2022-09-29T02:41:28.628Z,37.63
2022-09-29T02:44:22.748Z,33.63
2022-09-29T02:47:43.176Z,29.60
2022-09-29T02:50:25.046Z,32.45
2022-09-29T02:53:21.304Z,32.30
2022-09-29T02:56:03.688Z,33.50
2022-09-29T02:58:46.215Z,31.85
2022-09-29T03:01:16.381Z,31.55
2022-09-29T03:03:43.625Z,27.40
2022-09-29T03:06:11.169Z,27.52
2022-09-29T03:08:37.770Z,26.63
2022-09-29T03:11:04.088Z,29.67
2022-09-29T03:13:30.533Z,29.80
2022-09-29T03:15:56.885Z,31.00
2022-09-29T03:18:24.376Z,28.05
2022-09-29T03:20:50.737Z,25.48
2022-09-29T03:23:17.223Z,24.58
2022-09-29T03:25:43.522Z,24.58
2022-09-29T03:28:09.835Z,23.98
2022-09-29T03:30:36.137Z,22.77
2022-09-29T03:33:02.483Z,21.33
2022-09-29T03:35:28.820Z,23.88
2022-09-29T03:37:59.498Z,26.83
2022-09-29T03:40:27.549Z,28.10
2022-09-29T03:42:53.945Z,25.40
2022-09-29T03:45:20.291Z,24.55
2022-09-29T03:47:46.641Z,25.23
2022-09-29T03:50:13.298Z,20.27
2022-09-29T03:52:39.730Z,20.00
2022-09-29T03:55:06.583Z,21.20
2022-09-29T03:57:32.889Z,21.33
2022-09-29T03:59:59.182Z,21.40
2022-09-29T04:02:25.583Z,22.70
2022-09-29T04:04:51.988Z,26.25
2022-09-29T04:07:18.339Z,27.50
2022-09-29T04:09:44.636Z,23.83
2022-09-29T04:12:10.978Z,21.67
2022-09-29T04:14:37.292Z,19.13
2022-09-29T04:17:03.653Z,19.13
2022-09-29T04:19:29.964Z,18.92
2022-09-29T04:21:56.261Z,19.25
2022-09-29T04:24:22.581Z,17.67
2022-09-29T04:26:48.883Z,18.15
2022-09-29T04:29:15.433Z,18.42
2022-09-29T04:31:41.891Z,20.98
2022-09-29T04:34:08.239Z,18.35
2022-09-29T04:36:34.555Z,17.42
2022-09-29T04:39:01.015Z,16.17
2022-09-29T04:41:27.317Z,17.65
2022-09-29T04:43:53.621Z,18.48
2022-09-29T04:46:20.007Z,16.95
2022-09-29T04:48:46.417Z,17.73
2022-09-29T04:51:12.721Z,16.77
2022-09-29T04:53:39.039Z,17.08
2022-09-29T04:56:07.199Z,16.55
2022-09-29T04:58:33.952Z,16.45
2022-09-29T05:01:08.841Z,16.90
2022-09-29T05:03:35.205Z,15.30
2022-09-29T05:06:01.726Z,15.85
2022-09-29T05:08:28.042Z,17.00
2022-09-29T05:10:54.353Z,16.92
2022-09-29T05:13:20.722Z,16.77
2022-09-29T05:15:47.046Z,17.15
2022-09-29T05:18:13.353Z,16.42
2022-09-29T05:20:45.535Z,16.67
2022-09-29T05:23:21.400Z,16.75
2022-09-29T05:25:47.939Z,16.10
2022-09-29T05:28:15.166Z,15.63
2022-09-29T05:30:42.233Z,17.10
2022-09-29T05:33:08.589Z,17.27
2022-09-29T05:35:35.111Z,17.63
2022-09-29T05:38:01.448Z,17.90
2022-09-29T05:40:27.801Z,19.55
2022-09-29T05:42:54.232Z,21.50
2022-09-29T05:45:20.597Z,20.02
2022-09-29T05:47:46.926Z,19.55
2022-09-29T05:50:14.031Z,19.60
2022-09-29T05:52:40.493Z,20.40
2022-09-29T05:55:10.921Z,20.38
2022-09-29T05:57:37.302Z,20.42
2022-09-29T06:00:04.525Z,19.27
2022-09-29T06:02:30.871Z,19.38
2022-09-29T06:04:57.191Z,18.52
2022-09-29T06:07:23.530Z,19.88
2022-09-29T06:09:50.084Z,19.20
2022-09-29T06:12:19.919Z,20.42
2022-09-29T06:14:48.041Z,22.38
2022-09-29T06:17:14.355Z,23.33
2022-09-29T06:19:44.523Z,23.55
2022-09-29T06:22:11.185Z,25.13
2022-09-29T06:24:37.524Z,26.38
2022-09-29T06:27:03.858Z,24.75
2022-09-29T06:29:30.212Z,27.98
2022-09-29T06:31:56.642Z,26.55
2022-09-29T06:34:22.993Z,28.23
2022-09-29T06:37:08.025Z,26.92
2022-09-29T06:39:34.323Z,25.80
2022-09-29T06:42:01.064Z,27.38
2022-09-29T06:44:29.858Z,31.13
2022-09-29T06:46:57.081Z,32.55
2022-09-29T06:49:24.383Z,39.85
2022-09-29T06:51:51.147Z,42.67
2022-09-29T06:54:20.770Z,44.22
2022-09-29T06:56:51.028Z,48.47
2022-09-29T06:59:17.748Z,50.53
2022-09-29T07:01:44.369Z,52.63
2022-09-29T07:04:10.772Z,50.08
2022-09-29T07:06:37.105Z,51.00
2022-09-29T07:09:03.763Z,52.25
2022-09-29T07:11:30.104Z,52.88
2022-09-29T07:13:56.461Z,57.78
2022-09-29T07:16:26.222Z,55.92
2022-09-29T07:18:53.008Z,54.45
2022-09-29T07:21:21.973Z,56.10
2022-09-29T07:23:48.674Z,58.28
2022-09-29T07:26:18.861Z,55.00
2022-09-29T07:28:46.761Z,54.08
2022-09-29T07:31:16.452Z,52.03
2022-09-29T07:33:44.628Z,51.83
2022-09-29T07:36:11.734Z,56.45
2022-09-29T07:38:38.083Z,51.58
2022-09-29T07:41:07.430Z,53.22
2022-09-29T07:43:34.478Z,52.63
2022-09-29T07:46:01.635Z,55.92
2022-09-29T07:48:31.967Z,51.80
2022-09-29T07:51:07.414Z,51.88
2022-09-29T07:53:35.004Z,53.22
2022-09-29T07:56:15.884Z,52.08
2022-09-29T07:58:42.293Z,51.63
2022-09-29T08:01:12.706Z,50.97
2022-09-29T08:03:41.055Z,51.95
2022-09-29T08:06:08.093Z,51.58
2022-09-29T08:08:39.275Z,51.85
2022-09-29T08:11:12.477Z,53.40
2022-09-29T08:13:42.871Z,51.22
2022-09-29T08:16:12.658Z,51.08
2022-09-29T08:18:39.068Z,49.00
2022-09-29T08:21:06.543Z,48.88
2022-09-29T08:23:37.690Z,48.10
2022-09-29T08:26:06.676Z,46.10
2022-09-29T08:28:34.670Z,43.30
2022-09-29T08:31:09.685Z,46.25
2022-09-29T08:33:36.681Z,44.38
2022-09-29T08:36:06.166Z,44.33
2022-09-29T08:38:32.823Z,44.33
2022-09-29T08:41:06.057Z,41.88
2022-09-29T08:43:54.210Z,42.45
2022-09-29T08:46:36.538Z,41.38
2022-09-29T08:49:10.291Z,42.63
2022-09-29T08:51:43.341Z,44.30
2022-09-29T08:54:38.754Z,42.33
2022-09-29T08:57:07.506Z,42.90
2022-09-29T08:59:33.847Z,46.15
2022-09-29T09:02:26.959Z,43.78
2022-09-29T09:05:17.083Z,43.17
2022-09-29T09:07:53.427Z,43.88
2022-09-29T09:10:32.250Z,44.45
2022-09-29T09:13:13.701Z,45.58
2022-09-29T09:15:54.151Z,45.22
2022-09-29T09:18:29.742Z,43.53
2022-09-29T09:21:13.985Z,38.08
2022-09-29T09:23:56.837Z,34.83
2022-09-29T09:26:41.367Z,38.38
2022-09-29T09:29:19.979Z,35.20
2022-09-29T09:31:58.020Z,36.63
2022-09-29T09:34:46.225Z,29.90
2022-09-29T09:37:28.386Z,29.88
2022-09-29T09:40:03.909Z,27.88
2022-09-29T09:42:36.785Z,26.60
2022-09-29T09:45:41.749Z,26.50
2022-09-29T09:48:13.765Z,22.83
2022-09-29T09:50:42.951Z,23.08
2022-09-29T09:53:19.500Z,25.70
2022-09-29T09:55:53.992Z,25.40
2022-09-29T09:58:34.806Z,25.05
2022-09-29T10:01:07.287Z,28.33
2022-09-29T10:03:34.488Z,22.10
2022-09-29T10:06:00.991Z,26.42
2022-09-29T10:08:38.300Z,27.77
2022-09-29T10:11:16.016Z,22.55
2022-09-29T10:13:42.538Z,18.63
2022-09-29T10:16:17.339Z,20.75
2022-09-29T10:18:47.015Z,21.05
2022-09-29T10:21:25.087Z,18.00
2022-09-29T10:23:54.365Z,19.60
2022-09-29T10:26:36.057Z,19.63
2022-09-29T10:29:17.326Z,18.35
2022-09-29T10:31:43.701Z,20.35
2022-09-29T10:34:09.943Z,21.67
2022-09-29T10:36:52.093Z,23.50
2022-09-29T10:39:32.946Z,16.70
2022-09-29T10:41:59.695Z,15.45
2022-09-29T10:44:32.337Z,11.32
2022-09-29T10:46:59.288Z,12.27
2022-09-29T10:49:29.075Z,13.57
2022-09-29T10:52:01.919Z,14.80
2022-09-29T10:54:33.354Z,13.40
2022-09-29T10:57:10.752Z,12.13
2022-09-29T10:59:46.605Z,9.20
2022-09-29T11:02:22.443Z,9.80
2022-09-29T11:04:49.437Z,9.10
2022-09-29T11:07:16.138Z,8.68
2022-09-29T11:09:45.053Z,7.45
2022-09-29T11:12:27.230Z,7.38
2022-09-29T11:14:54.139Z,8.52
2022-09-29T11:17:24.306Z,7.47
2022-09-29T11:19:56.847Z,7.38
2022-09-29T11:22:49.136Z,7.43
2022-09-29T11:25:22.537Z,6.53
2022-09-29T11:28:02.218Z,6.53
2022-09-29T11:30:42.876Z,7.00
2022-09-29T11:33:12.329Z,6.35
2022-09-29T11:36:08.091Z,8.13
2022-09-29T11:39:00.770Z,10.63
2022-09-29T11:41:33.143Z,6.57
2022-09-29T11:44:25.929Z,6.18
2022-09-29T11:46:58.036Z,6.30
2022-09-29T11:49:35.083Z,4.80
2022-09-29T11:52:20.295Z,5.95
2022-09-29T11:54:52.655Z,6.55
2022-09-29T11:57:49.138Z,5.05
2022-09-29T12:00:18.864Z,6.35
2022-09-29T12:03:10.170Z,7.43
2022-09-29T12:06:01.947Z,7.15
2022-09-29T12:08:45.956Z,6.00
2022-09-29T12:11:50.756Z,6.85
2022-09-29T12:14:31.212Z,5.40
2022-09-29T12:17:02.227Z,5.10
2022-09-29T12:19:33.062Z,6.25
2022-09-29T12:22:03.010Z,6.15
2022-09-29T12:24:37.720Z,6.00
2022-09-29T12:27:16.466Z,5.07
2022-09-29T12:30:16.214Z,5.30
2022-09-29T12:32:54.369Z,5.55
2022-09-29T12:35:34.568Z,6.68
2022-09-29T12:38:10.708Z,5.53
2022-09-29T12:40:46.171Z,6.07
2022-09-29T12:43:37.349Z,6.30
2022-09-29T12:46:10.179Z,4.93
2022-09-29T12:48:51.306Z,5.75
2022-09-29T12:51:22.919Z,4.38
2022-09-29T12:54:22.004Z,5.53
2022-09-29T12:56:51.506Z,5.60
2022-09-29T12:59:30.007Z,7.22
2022-09-29T13:01:57.973Z,5.90
2022-09-29T13:05:06.437Z,6.07
2022-09-29T13:07:39.723Z,5.65
2022-09-29T13:10:22.045Z,5.68
2022-09-29T13:12:52.740Z,6.22
2022-09-29T13:15:56.431Z,5.60
2022-09-29T13:18:53.969Z,5.18
2022-09-29T13:22:13.697Z,5.90
2022-09-29T13:24:55.707Z,6.97
2022-09-29T13:27:44.419Z,6.22
2022-09-29T13:30:17.019Z,7.53
2022-09-29T13:32:47.802Z,7.50
2022-09-29T13:35:17.400Z,6.18
2022-09-29T13:38:05.605Z,6.43
2022-09-29T13:40:32.986Z,5.28
2022-09-29T13:43:05.394Z,6.30
2022-09-29T13:45:34.516Z,5.97
2022-09-29T13:48:22.600Z,5.68
2022-09-29T13:50:50.099Z,5.03
2022-09-29T13:53:19.184Z,6.30
2022-09-29T13:56:08.753Z,6.20
2022-09-29T13:58:44.215Z,5.78
2022-09-29T14:01:12.737Z,5.22
2022-09-29T14:03:41.579Z,4.22
2022-09-29T14:06:40.145Z,4.38
2022-09-29T14:09:16.253Z,5.63
2022-09-29T14:11:48.518Z,6.38
2022-09-29T14:14:21.500Z,5.72
2022-09-29T14:17:05.369Z,5.43
2022-09-29T14:19:59.963Z,6.15
2022-09-29T14:22:26.275Z,6.13
2022-09-29T14:24:55.538Z,5.97
2022-09-29T14:27:32.024Z,6.45
2022-09-29T14:30:13.632Z,6.15
2022-09-29T14:32:55.963Z,7.32
2022-09-29T14:35:30.718Z,10.35
2022-09-29T14:38:04.992Z,8.57
2022-09-29T14:40:32.676Z,6.95
2022-09-29T14:43:02.908Z,6.85
2022-09-29T14:46:08.159Z,8.48
2022-09-29T14:49:04.851Z,7.45
2022-09-29T14:51:58.205Z,6.43
2022-09-29T14:54:39.456Z,6.40
2022-09-29T14:57:43.118Z,5.35
2022-09-29T15:00:17.848Z,6.40
2022-09-29T15:03:00.277Z,6.72
2022-09-29T15:05:37.428Z,6.32
2022-09-29T15:08:23.307Z,6.13
2022-09-29T15:10:49.640Z,6.60
2022-09-29T15:13:24.221Z,5.82
2022-09-29T15:15:57.371Z,5.28
2022-09-29T15:18:30.900Z,6.07
2022-09-29T15:21:06.708Z,6.40
2022-09-29T15:23:58.805Z,5.80
2022-09-29T15:26:30.202Z,6.07
2022-09-29T15:28:57.077Z,6.18
2022-09-29T15:31:29.266Z,6.18
2022-09-29T15:33:55.814Z,7.07
2022-09-29T15:36:26.882Z,7.93
2022-09-29T15:39:33.767Z,8.32
2022-09-29T15:42:02.411Z,8.27
2022-09-29T15:44:33.521Z,9.70
2022-09-29T15:47:00.653Z,9.25
2022-09-29T15:49:28.694Z,9.02
2022-09-29T15:52:07.473Z,11.05
2022-09-29T15:54:39.673Z,7.97
2022-09-29T15:57:24.903Z,8.30
2022-09-29T15:59:54.043Z,8.02
2022-09-29T16:02:36.527Z,10.45
2022-09-29T16:05:07.346Z,5.75
2022-09-29T16:07:38.264Z,6.78
2022-09-29T16:10:16.094Z,9.00
2022-09-29T16:12:53.557Z,10.13
2022-09-29T16:15:30.455Z,10.40
2022-09-29T16:18:22.144Z,12.95
2022-09-29T16:20:50.491Z,11.32
2022-09-29T16:23:22.068Z,9.27
2022-09-29T16:26:06.644Z,9.02
2022-09-29T16:28:36.116Z,12.88
2022-09-29T16:31:10.102Z,11.70
2022-09-29T16:33:44.005Z,11.18
2022-09-29T16:36:20.146Z,10.95
2022-09-29T16:38:51.391Z,9.43
2022-09-29T16:41:35.424Z,7.85
2022-09-29T16:44:10.584Z,10.68
2022-09-29T16:46:49.082Z,9.30
2022-09-29T16:49:27.645Z,8.73
2022-09-29T16:51:58.825Z,8.85
2022-09-29T16:54:31.059Z,7.20
2022-09-29T16:57:26.505Z,7.30
2022-09-29T16:59:55.612Z,7.63
2022-09-29T17:02:22.913Z,7.80
2022-09-29T17:04:53.690Z,7.85
2022-09-29T17:07:22.906Z,7.75
2022-09-29T17:09:56.030Z,7.28
2022-09-29T17:12:24.399Z,8.05
2022-09-29T17:14:51.014Z,7.70
2022-09-29T17:17:22.917Z,8.20
2022-09-29T17:19:50.537Z,7.93
2022-09-29T17:22:37.177Z,10.45
2022-09-29T17:25:04.714Z,8.98
2022-09-29T17:27:50.030Z,7.82
2022-09-29T17:30:23.220Z,7.72
2022-09-29T17:32:52.871Z,9.95
2022-09-29T17:35:21.189Z,11.07
2022-09-29T17:37:48.063Z,13.68
2022-09-29T17:40:28.861Z,14.40
2022-09-29T17:42:57.333Z,10.95
2022-09-29T17:45:24.700Z,10.85
2022-09-29T17:47:51.486Z,11.43
2022-09-29T17:50:23.910Z,10.45
2022-09-29T17:52:50.461Z,9.30
2022-09-29T17:55:16.916Z,9.70
2022-09-29T17:57:43.597Z,12.70
2022-09-29T18:00:15.890Z,9.93
2022-09-29T18:02:42.381Z,9.50
2022-09-29T18:05:10.760Z,10.13
2022-09-29T18:07:37.145Z,9.82
2022-09-29T18:10:15.306Z,9.35
2022-09-29T18:12:41.790Z,9.40
2022-09-29T18:15:10.352Z,11.10
2022-09-29T18:17:36.809Z,10.80
2022-09-29T18:20:21.958Z,10.40
2022-09-29T18:22:48.662Z,11.38
2022-09-29T18:25:17.666Z,12.13
2022-09-29T18:27:46.292Z,14.55
2022-09-29T18:30:26.845Z,12.15
2022-09-29T18:32:55.963Z,12.27
2022-09-29T18:35:24.881Z,12.02
2022-09-29T18:37:51.426Z,11.10
2022-09-29T18:40:18.651Z,11.52
2022-09-29T18:42:48.009Z,10.85
2022-09-29T18:45:23.110Z,10.85
2022-09-29T18:47:55.257Z,11.52
2022-09-29T18:50:25.318Z,10.38
2022-09-29T18:52:52.195Z,10.27
2022-09-29T18:55:23.063Z,11.32
2022-09-29T18:57:50.095Z,11.07
2022-09-29T19:00:19.681Z,11.63
2022-09-29T19:02:47.372Z,12.20
2022-09-29T19:05:23.498Z,12.90
2022-09-29T19:07:54.335Z,15.30
2022-09-29T19:10:20.737Z,13.95
2022-09-29T19:12:48.458Z,14.30
2022-09-29T19:15:17.012Z,15.27
2022-09-29T19:17:44.852Z,14.57
2022-09-29T19:20:16.426Z,14.27
2022-09-29T19:22:43.994Z,14.57
2022-09-29T19:25:18.108Z,14.77
2022-09-29T19:27:45.857Z,13.02
2022-09-29T19:30:15.239Z,14.80
2022-09-29T19:32:42.484Z,13.63
2022-09-29T19:35:12.361Z,14.23
2022-09-29T19:37:38.834Z,14.10
2022-09-29T19:40:08.843Z,13.88
2022-09-29T19:42:35.393Z,14.48
2022-09-29T19:45:05.256Z,15.45
2022-09-29T19:47:32.184Z,13.80
2022-09-29T19:50:17.119Z,15.05
2022-09-29T19:52:43.668Z,15.18
2022-09-29T19:55:12.758Z,16.27
2022-09-29T19:57:42.514Z,15.57
2022-09-29T20:00:11.434Z,15.60
2022-09-29T20:02:37.905Z,14.57
2022-09-29T20:05:05.800Z,14.88
2022-09-29T20:07:32.253Z,15.05
2022-09-29T20:09:58.591Z,14.38
2022-09-29T20:12:26.126Z,14.40
2022-09-29T20:14:52.453Z,13.52
2022-09-29T20:17:18.799Z,13.23
2022-09-29T20:19:47.152Z,13.10
2022-09-29T20:22:14.204Z,13.27
2022-09-29T20:24:40.607Z,13.77
2022-09-29T20:27:07.001Z,13.15
2022-09-29T20:29:34.098Z,14.65
2022-09-29T20:32:00.750Z,13.55
2022-09-29T20:34:27.086Z,13.35
2022-09-29T20:36:55.108Z,13.85
2022-09-29T20:39:22.230Z,15.73
2022-09-29T20:41:49.914Z,15.75
2022-09-29T20:44:19.792Z,14.48
2022-09-29T20:46:46.319Z,14.38
2022-09-29T20:49:12.717Z,13.82
2022-09-29T20:51:39.072Z,13.52
2022-09-29T20:54:05.462Z,12.98
2022-09-29T20:56:35.734Z,13.55
2022-09-29T20:59:02.583Z,12.27
2022-09-29T21:01:30.737Z,12.90
2022-09-29T21:04:03.900Z,13.45
2022-09-29T21:06:32.648Z,12.10
2022-09-29T21:08:59.944Z,12.02
2022-09-29T21:11:26.757Z,11.70
2022-09-29T21:13:56.818Z,12.65
2022-09-29T21:16:24.418Z,12.27
2022-09-29T21:18:53.920Z,12.85
2022-09-29T21:21:20.455Z,13.52
2022-09-29T21:23:46.793Z,13.88
2022-09-29T21:26:18.545Z,13.45
2022-09-29T21:28:53.249Z,13.85
2022-09-29T21:31:22.392Z,13.68
2022-09-29T21:33:56.635Z,14.25
2022-09-29T21:36:25.290Z,14.57
2022-09-29T21:38:52.338Z,14.55
2022-09-29T21:41:21.857Z,14.68
2022-09-29T21:43:50.955Z,16.02
2022-09-29T21:46:19.537Z,15.95
2022-09-29T21:48:46.789Z,15.73
2022-09-29T21:51:16.638Z,17.25
2022-09-29T21:53:44.359Z,17.35
2022-09-29T21:56:16.192Z,16.65
2022-09-29T21:58:43.388Z,13.75
2022-09-29T22:01:11.468Z,14.52
2022-09-29T22:03:42.228Z,14.13
2022-09-29T22:06:14.458Z,15.00
2022-09-29T22:08:40.993Z,14.43
2022-09-29T22:11:08.046Z,16.80
2022-09-29T22:13:37.782Z,15.75
2022-09-29T22:16:07.301Z,13.32
2022-09-29T22:18:41.735Z,13.98
2022-09-29T22:21:14.819Z,13.32
2022-09-29T22:23:41.170Z,12.80
2022-09-29T22:26:13.986Z,12.07
2022-09-29T22:28:43.884Z,13.18
2022-09-29T22:31:11.997Z,14.75
2022-09-29T22:33:42.246Z,14.88
2022-09-29T22:36:09.177Z,14.23
2022-09-29T22:38:36.911Z,15.25
2022-09-29T22:41:15.202Z,15.10
2022-09-29T22:43:41.721Z,12.85
2022-09-29T22:46:08.728Z,11.88
2022-09-29T22:48:35.804Z,13.30
2022-09-29T22:51:02.354Z,16.75
2022-09-29T22:53:28.737Z,16.85
2022-09-29T22:55:55.322Z,15.63
2022-09-29T22:58:24.758Z,16.75
2022-09-29T23:01:02.986Z,15.65
2022-09-29T23:03:29.819Z,14.32
2022-09-29T23:06:00.036Z,16.25
2022-09-29T23:08:26.825Z,16.45
2022-09-29T23:10:55.781Z,16.48
2022-09-29T23:13:23.531Z,15.35
2022-09-29T23:15:50.268Z,15.45
2022-09-29T23:18:17.739Z,15.98
2022-09-29T23:20:44.737Z,16.58
2022-09-29T23:23:11.946Z,15.05
2022-09-29T23:25:38.657Z,14.98
2022-09-29T23:28:05.933Z,15.38
2022-09-29T23:30:36.152Z,15.95
2022-09-29T23:33:02.796Z,14.70
2022-09-29T23:35:29.113Z,16.52
2022-09-29T23:38:14.120Z,15.40
2022-09-29T23:40:41.611Z,14.45
2022-09-29T23:43:07.939Z,14.75
2022-09-29T23:45:34.544Z,14.32
2022-09-29T23:48:01.125Z,15.77
2022-09-29T23:50:30.232Z,16.83
2022-09-29T23:52:56.534Z,16.73
2022-09-29T23:55:22.898Z,18.05
2022-09-29T23:57:49.211Z,18.48
